createdAt,value
2017-10-06T00:00:01.088Z,100
2017-10-06T00:01:03.520Z,100
2017-10-06T00:02:06.295Z,100
2017-10-06T00:03:08.730Z,100
2017-10-06T00:04:11.160Z,100
2017-10-06T00:05:13.946Z,100
2017-10-06T00:06:16.385Z,100
2017-10-06T00:07:18.816Z,100
2017-10-06T00:08:21.252Z,100
2017-10-06T00:09:23.694Z,100
2017-10-06T00:10:26.122Z,100
2017-10-06T00:11:28.557Z,100
2017-10-06T00:12:30.989Z,100
2017-10-06T00:13:33.429Z,100
2017-10-06T00:14:35.863Z,100
2017-10-06T00:15:38.309Z,100
2017-10-06T00:16:40.734Z,100
2017-10-06T00:17:43.177Z,100
2017-10-06T00:18:45.604Z,100
2017-10-06T00:19:48.036Z,100
2017-10-06T00:20:50.472Z,100
2017-10-06T00:21:52.903Z,100
2017-10-06T00:22:55.336Z,100
2017-10-06T00:23:58.112Z,100
2017-10-06T00:25:00.561Z,100
2017-10-06T00:26:02.996Z,100
2017-10-06T00:27:05.425Z,100
2017-10-06T00:28:07.868Z,100
2017-10-06T00:29:10.306Z,100
2017-10-06T00:30:12.734Z,100
2017-10-06T00:31:15.173Z,100
2017-10-06T00:32:17.591Z,100
2017-10-06T00:33:20.372Z,100
2017-10-06T00:34:22.812Z,100
2017-10-06T00:35:25.247Z,100
2017-10-06T00:36:27.684Z,100
2017-10-06T00:37:30.120Z,100
2017-10-06T00:38:32.562Z,100
2017-10-06T00:39:35.007Z,100
2017-10-06T00:40:37.439Z,100
2017-10-06T00:41:39.858Z,100
2017-10-06T00:42:42.299Z,100
2017-10-06T00:43:44.743Z,100
2017-10-06T00:44:47.183Z,100
2017-10-06T00:45:49.622Z,100
2017-10-06T00:46:52.054Z,100
2017-10-06T00:47:54.487Z,100
2017-10-06T00:48:56.928Z,100
2017-10-06T00:49:59.696Z,100
2017-10-06T00:51:02.120Z,100
2017-10-06T00:52:04.554Z,100
2017-10-06T00:53:06.986Z,100
2017-10-06T00:54:09.419Z,100
2017-10-06T00:55:12.236Z,100
2017-10-06T00:56:14.664Z,100
2017-10-06T00:57:17.104Z,100
2017-10-06T00:58:19.555Z,100
2017-10-06T00:59:21.984Z,100
2017-10-06T01:00:24.408Z,100
2017-10-06T01:01:26.843Z,100
2017-10-06T01:02:29.274Z,100
2017-10-06T01:03:31.713Z,100
2017-10-06T01:04:34.150Z,100
2017-10-06T01:05:36.572Z,100
2017-10-06T01:06:39.014Z,100
2017-10-06T01:07:41.460Z,100
2017-10-06T01:08:43.886Z,100
2017-10-06T01:09:46.323Z,100
2017-10-06T01:10:48.758Z,100
2017-10-06T01:11:51.191Z,100
2017-10-06T01:12:53.638Z,100
2017-10-06T01:13:56.078Z,100
2017-10-06T01:14:59.187Z,100
2017-10-06T01:16:01.623Z,100
2017-10-06T01:17:04.055Z,100
2017-10-06T01:18:06.483Z,100
2017-10-06T01:19:08.918Z,100
2017-10-06T01:20:11.342Z,100
2017-10-06T01:21:13.774Z,100
2017-10-06T01:22:16.223Z,100
2017-10-06T01:23:19.008Z,100
2017-10-06T01:24:21.434Z,100
2017-10-06T01:25:23.871Z,100
2017-10-06T01:26:26.305Z,100
2017-10-06T01:27:28.745Z,100
2017-10-06T01:28:31.178Z,100
2017-10-06T01:29:33.616Z,100
2017-10-06T01:30:36.038Z,100
2017-10-06T01:31:38.481Z,100
2017-10-06T01:32:40.917Z,100
2017-10-06T01:33:43.354Z,100
2017-10-06T01:34:45.789Z,100
2017-10-06T01:35:48.229Z,100
2017-10-06T01:36:50.659Z,100
2017-10-06T01:37:53.092Z,100
2017-10-06T01:38:55.523Z,100
2017-10-06T01:39:57.961Z,100
2017-10-06T01:41:00.394Z,100
2017-10-06T01:42:03.184Z,100
2017-10-06T01:43:05.618Z,100
2017-10-06T01:44:08.054Z,100
2017-10-06T01:45:10.477Z,100
2017-10-06T01:46:12.927Z,100
2017-10-06T01:47:15.357Z,100
2017-10-06T01:48:17.793Z,100
2017-10-06T01:49:20.231Z,100
2017-10-06T01:50:22.666Z,100
2017-10-06T01:51:25.104Z,100
2017-10-06T01:52:27.542Z,100
2017-10-06T01:53:30.318Z,99
2017-10-06T01:54:32.753Z,99
2017-10-06T01:55:35.175Z,99
2017-10-06T01:56:37.614Z,99
2017-10-06T01:57:40.050Z,99
2017-10-06T01:58:42.487Z,99
2017-10-06T01:59:44.923Z,99
2017-10-06T02:00:47.731Z,99
2017-10-06T02:01:50.170Z,99
2017-10-06T02:02:52.605Z,99
2017-10-06T02:03:55.033Z,99
2017-10-06T02:04:57.468Z,99
2017-10-06T02:05:59.891Z,99
2017-10-06T02:07:02.321Z,99
2017-10-06T02:08:04.756Z,99
2017-10-06T02:09:07.896Z,99
2017-10-06T02:10:10.321Z,99
2017-10-06T02:11:12.766Z,99
2017-10-06T02:12:15.197Z,100
2017-10-06T02:13:17.634Z,100
2017-10-06T02:14:20.064Z,100
2017-10-06T02:15:22.497Z,100
2017-10-06T02:16:24.931Z,100
2017-10-06T02:17:27.371Z,100
2017-10-06T02:18:29.801Z,100
2017-10-06T02:19:32.576Z,100
2017-10-06T02:20:35.005Z,100
2017-10-06T02:21:37.788Z,100
2017-10-06T02:22:40.223Z,100
2017-10-06T02:23:42.645Z,100
2017-10-06T02:24:45.078Z,100
2017-10-06T02:25:47.855Z,100
2017-10-06T02:26:50.294Z,100
2017-10-06T02:27:52.727Z,100
2017-10-06T02:28:55.171Z,100
2017-10-06T02:29:57.945Z,100
2017-10-06T02:31:00.389Z,100
2017-10-06T02:32:02.817Z,100
2017-10-06T02:33:05.587Z,100
2017-10-06T02:34:08.021Z,100
2017-10-06T02:35:10.453Z,100
2017-10-06T02:36:12.893Z,100
2017-10-06T02:37:15.328Z,100
2017-10-06T02:38:17.753Z,100
2017-10-06T02:39:20.186Z,100
2017-10-06T02:40:22.625Z,100
2017-10-06T02:41:25.048Z,100
2017-10-06T02:42:27.476Z,100
2017-10-06T02:43:29.916Z,100
2017-10-06T02:44:32.348Z,100
2017-10-06T02:45:34.799Z,100
2017-10-06T02:46:37.233Z,100
2017-10-06T02:47:39.662Z,100
2017-10-06T02:48:42.102Z,100
2017-10-06T02:49:44.876Z,100
2017-10-06T02:50:47.308Z,100
2017-10-06T02:51:49.738Z,100
2017-10-06T02:52:52.165Z,100
2017-10-06T02:53:54.608Z,100
2017-10-06T02:54:57.043Z,100
2017-10-06T02:55:59.492Z,100
2017-10-06T02:57:01.919Z,100
2017-10-06T02:58:04.353Z,100
2017-10-06T02:59:06.796Z,100
2017-10-06T03:00:09.231Z,100
2017-10-06T03:01:11.662Z,100
2017-10-06T03:02:14.428Z,100
2017-10-06T03:03:16.851Z,100
2017-10-06T03:04:19.293Z,100
2017-10-06T03:05:22.066Z,100
2017-10-06T03:06:24.496Z,100
2017-10-06T03:07:26.925Z,100
2017-10-06T03:08:29.373Z,100
2017-10-06T03:09:31.811Z,100
2017-10-06T03:10:34.247Z,100
2017-10-06T03:11:36.674Z,100
2017-10-06T03:12:39.110Z,100
2017-10-06T03:13:41.889Z,100
2017-10-06T03:14:44.326Z,100
2017-10-06T03:15:46.766Z,100
2017-10-06T03:16:49.559Z,100
2017-10-06T03:17:51.986Z,100
2017-10-06T03:18:54.426Z,100
2017-10-06T03:19:56.857Z,100
2017-10-06T03:20:59.284Z,100
2017-10-06T03:22:01.719Z,100
2017-10-06T03:23:04.150Z,100
2017-10-06T03:24:06.585Z,100
2017-10-06T03:25:09.025Z,100
2017-10-06T03:26:11.460Z,100
2017-10-06T03:27:13.892Z,100
2017-10-06T03:28:16.317Z,100
2017-10-06T03:29:18.751Z,100
2017-10-06T03:30:21.183Z,100
2017-10-06T03:31:23.611Z,100
2017-10-06T03:32:26.044Z,99
2017-10-06T03:33:28.482Z,99
2017-10-06T03:34:30.917Z,99
2017-10-06T03:35:33.360Z,99
2017-10-06T03:36:35.785Z,99
2017-10-06T03:37:38.220Z,99
2017-10-06T03:38:40.663Z,99
2017-10-06T03:39:43.103Z,99
2017-10-06T03:40:45.544Z,99
2017-10-06T03:41:47.980Z,99
2017-10-06T03:42:50.744Z,99
2017-10-06T03:43:53.190Z,99
2017-10-06T03:44:55.623Z,99
2017-10-06T03:45:58.051Z,99
2017-10-06T03:47:00.490Z,99
2017-10-06T03:48:02.921Z,99
2017-10-06T03:49:05.354Z,99
2017-10-06T03:50:08.139Z,99
2017-10-06T03:51:10.568Z,99
2017-10-06T03:52:12.994Z,99
2017-10-06T03:53:15.434Z,99
2017-10-06T03:54:17.878Z,99
2017-10-06T03:55:20.307Z,99
2017-10-06T03:56:22.724Z,99
2017-10-06T03:57:25.158Z,99
2017-10-06T03:58:27.588Z,99
2017-10-06T03:59:30.393Z,99
2017-10-06T04:00:32.822Z,99
2017-10-06T04:01:35.241Z,99
2017-10-06T04:02:37.681Z,99
2017-10-06T04:03:40.128Z,99
2017-10-06T04:04:42.916Z,100
2017-10-06T04:05:45.706Z,100
2017-10-06T04:06:48.475Z,100
2017-10-06T04:07:50.909Z,100
2017-10-06T04:08:53.362Z,100
2017-10-06T04:09:56.140Z,100
2017-10-06T04:10:58.573Z,100
2017-10-06T04:12:01.006Z,100
2017-10-06T04:13:03.442Z,100
2017-10-06T04:14:05.875Z,100
2017-10-06T04:15:08.308Z,100
2017-10-06T04:16:10.729Z,100
2017-10-06T04:17:13.158Z,100
2017-10-06T04:18:15.603Z,100
2017-10-06T04:19:18.039Z,100
2017-10-06T04:20:20.473Z,100
2017-10-06T04:21:22.906Z,100
2017-10-06T04:22:25.345Z,100
2017-10-06T04:23:27.768Z,100
2017-10-06T04:24:30.541Z,100
2017-10-06T04:25:33.331Z,100
2017-10-06T04:26:35.766Z,100
2017-10-06T04:27:38.191Z,100
2017-10-06T04:28:40.638Z,100
2017-10-06T04:29:43.068Z,100
2017-10-06T04:30:45.508Z,100
2017-10-06T04:31:47.950Z,100
2017-10-06T04:32:50.380Z,100
2017-10-06T04:33:52.814Z,100
2017-10-06T04:34:55.263Z,100
2017-10-06T04:35:57.688Z,100
2017-10-06T04:37:00.124Z,100
2017-10-06T04:38:02.566Z,100
2017-10-06T04:39:05.003Z,100
2017-10-06T04:40:07.770Z,100
2017-10-06T04:41:10.211Z,100
2017-10-06T04:42:12.633Z,100
2017-10-06T04:43:15.074Z,100
2017-10-06T04:44:17.503Z,100
2017-10-06T04:45:19.930Z,100
2017-10-06T04:46:22.366Z,100
2017-10-06T04:47:24.803Z,100
2017-10-06T04:48:27.578Z,100
2017-10-06T04:49:30.019Z,100
2017-10-06T04:50:32.456Z,100
2017-10-06T04:51:34.879Z,100
2017-10-06T04:52:37.315Z,100
2017-10-06T04:53:39.752Z,100
2017-10-06T04:54:42.184Z,100
2017-10-06T04:55:44.634Z,100
2017-10-06T04:56:47.076Z,100
2017-10-06T04:57:49.853Z,100
2017-10-06T04:58:52.306Z,100
2017-10-06T04:59:54.741Z,100
2017-10-06T05:00:57.173Z,100
2017-10-06T05:01:59.608Z,100
2017-10-06T05:03:02.045Z,100
2017-10-06T05:04:04.485Z,100
2017-10-06T05:05:06.914Z,100
2017-10-06T05:06:09.342Z,100
2017-10-06T05:07:11.780Z,100
2017-10-06T05:08:14.231Z,100
2017-10-06T05:09:16.659Z,100
2017-10-06T05:10:19.080Z,100
2017-10-06T05:11:21.853Z,100
2017-10-06T05:12:24.281Z,100
2017-10-06T05:13:26.721Z,100
2017-10-06T05:14:29.165Z,100
2017-10-06T05:15:31.586Z,100
2017-10-06T05:16:34.029Z,100
2017-10-06T05:17:36.483Z,100
2017-10-06T05:18:38.916Z,100
2017-10-06T05:19:41.347Z,100
2017-10-06T05:20:43.788Z,100
2017-10-06T05:21:46.221Z,100
2017-10-06T05:22:48.646Z,100
2017-10-06T05:23:51.423Z,100
2017-10-06T05:24:53.858Z,100
2017-10-06T05:25:56.300Z,100
2017-10-06T05:26:58.725Z,100
2017-10-06T05:28:01.163Z,100
2017-10-06T05:29:03.605Z,100
2017-10-06T05:30:06.046Z,100
2017-10-06T05:31:08.476Z,100
2017-10-06T05:32:10.906Z,100
2017-10-06T05:33:13.678Z,100
2017-10-06T05:34:16.116Z,100
2017-10-06T05:35:18.546Z,100
2017-10-06T05:36:20.986Z,100
2017-10-06T05:37:23.427Z,100
2017-10-06T05:38:25.856Z,100
2017-10-06T05:39:28.297Z,100
2017-10-06T05:40:30.728Z,100
2017-10-06T05:41:33.145Z,100
2017-10-06T05:42:35.590Z,100
2017-10-06T05:43:38.022Z,100
2017-10-06T05:44:40.456Z,100
2017-10-06T05:45:42.896Z,100
2017-10-06T05:46:45.327Z,100
2017-10-06T05:47:47.753Z,100
2017-10-06T05:48:50.535Z,100
2017-10-06T05:49:52.972Z,100
2017-10-06T05:50:55.405Z,100
2017-10-06T05:51:57.838Z,100
2017-10-06T05:53:00.273Z,100
2017-10-06T05:54:03.052Z,100
2017-10-06T05:55:06.177Z,100
2017-10-06T05:56:08.623Z,100
2017-10-06T05:57:11.053Z,100
2017-10-06T05:58:13.853Z,100
2017-10-06T05:59:16.283Z,100
2017-10-06T06:00:18.718Z,100
2017-10-06T06:01:21.146Z,100
2017-10-06T06:02:23.584Z,100
2017-10-06T06:03:26.007Z,100
2017-10-06T06:04:28.447Z,100
2017-10-06T06:05:30.872Z,100
2017-10-06T06:06:33.312Z,100
2017-10-06T06:07:35.748Z,100
2017-10-06T06:08:38.538Z,100
2017-10-06T06:09:41.312Z,100
2017-10-06T06:10:43.742Z,100
2017-10-06T06:11:46.182Z,100
2017-10-06T06:12:48.617Z,100
2017-10-06T06:13:51.049Z,100
2017-10-06T06:14:53.478Z,100
2017-10-06T06:15:55.902Z,100
2017-10-06T06:16:58.342Z,100
2017-10-06T06:18:00.786Z,100
2017-10-06T06:19:03.210Z,100
2017-10-06T06:20:05.653Z,100
2017-10-06T06:21:08.091Z,100
2017-10-06T06:22:10.515Z,100
2017-10-06T06:23:12.955Z,100
2017-10-06T06:24:15.398Z,100
2017-10-06T06:25:17.837Z,100
2017-10-06T06:26:20.272Z,100
2017-10-06T06:27:22.706Z,100
2017-10-06T06:28:25.476Z,100
2017-10-06T06:29:27.924Z,100
2017-10-06T06:30:30.356Z,100
2017-10-06T06:31:32.788Z,100
2017-10-06T06:32:35.224Z,100
2017-10-06T06:33:37.999Z,100
2017-10-06T06:34:40.436Z,100
2017-10-06T06:35:42.866Z,100
2017-10-06T06:36:45.301Z,100
2017-10-06T06:37:48.073Z,100
2017-10-06T06:38:50.519Z,100
2017-10-06T06:39:52.955Z,100
2017-10-06T06:40:55.378Z,100
2017-10-06T06:41:57.818Z,100
2017-10-06T06:43:00.253Z,100
2017-10-06T06:44:02.696Z,100
2017-10-06T06:45:05.124Z,100
2017-10-06T06:46:07.561Z,100
2017-10-06T06:47:09.998Z,100
2017-10-06T06:48:12.445Z,100
2017-10-06T06:49:14.874Z,100
2017-10-06T06:50:17.312Z,100
2017-10-06T06:51:19.755Z,100
2017-10-06T06:52:22.196Z,100
2017-10-06T06:53:24.626Z,100
2017-10-06T06:54:27.058Z,100
2017-10-06T06:55:29.480Z,100
2017-10-06T06:56:31.926Z,100
2017-10-06T06:57:34.361Z,100
2017-10-06T06:58:37.134Z,100
2017-10-06T06:59:39.909Z,100
2017-10-06T07:00:42.343Z,100
2017-10-06T07:01:44.780Z,100
2017-10-06T07:02:47.226Z,100
2017-10-06T07:03:49.657Z,100
2017-10-06T07:04:52.104Z,100
2017-10-06T07:05:54.547Z,100
2017-10-06T07:06:56.977Z,100
2017-10-06T07:07:59.417Z,100
2017-10-06T07:09:01.859Z,100
2017-10-06T07:10:04.290Z,100
2017-10-06T07:11:06.726Z,100
2017-10-06T07:12:09.151Z,100
2017-10-06T07:13:11.925Z,100
2017-10-06T07:14:14.373Z,100
2017-10-06T07:15:16.805Z,100
2017-10-06T07:16:19.244Z,100
2017-10-06T07:17:21.676Z,100
2017-10-06T07:18:24.121Z,100
2017-10-06T07:19:26.542Z,100
2017-10-06T07:20:28.980Z,100
2017-10-06T07:21:31.422Z,100
2017-10-06T07:22:33.857Z,100
2017-10-06T07:23:36.293Z,100
2017-10-06T07:24:38.724Z,100
2017-10-06T07:25:41.152Z,100
2017-10-06T07:26:43.597Z,100
2017-10-06T07:27:46.028Z,100
2017-10-06T07:28:48.459Z,100
2017-10-06T07:29:50.897Z,100
2017-10-06T07:30:53.340Z,100
2017-10-06T07:31:55.777Z,100
2017-10-06T07:32:58.212Z,100
2017-10-06T07:34:00.647Z,100
2017-10-06T07:35:03.089Z,100
2017-10-06T07:36:05.523Z,100
2017-10-06T07:37:07.962Z,100
2017-10-06T07:38:10.392Z,100
2017-10-06T07:39:12.827Z,100
2017-10-06T07:40:15.262Z,100
2017-10-06T07:41:17.694Z,100
2017-10-06T07:42:20.134Z,100
2017-10-06T07:43:22.583Z,100
2017-10-06T07:44:25.022Z,100
2017-10-06T07:45:27.464Z,100
2017-10-06T07:46:29.897Z,100
2017-10-06T07:47:32.334Z,100
2017-10-06T07:48:34.769Z,100
2017-10-06T07:49:37.208Z,100
2017-10-06T07:50:39.639Z,100
2017-10-06T07:51:42.069Z,100
2017-10-06T07:52:44.523Z,100
2017-10-06T07:53:46.955Z,100
2017-10-06T07:54:49.389Z,100
2017-10-06T07:55:51.833Z,100
2017-10-06T07:56:54.275Z,100
2017-10-06T07:57:57.055Z,100
2017-10-06T07:58:59.507Z,100
2017-10-06T08:00:01.930Z,100
2017-10-06T08:01:04.380Z,100
2017-10-06T08:02:06.823Z,100
2017-10-06T08:03:09.279Z,100
2017-10-06T08:04:11.718Z,100
2017-10-06T08:05:14.156Z,100
2017-10-06T08:06:16.595Z,100
2017-10-06T08:07:19.032Z,100
2017-10-06T08:08:21.465Z,100
2017-10-06T08:09:23.906Z,100
2017-10-06T08:10:26.349Z,100
2017-10-06T08:11:28.792Z,100
2017-10-06T08:12:31.225Z,100
2017-10-06T08:13:33.676Z,100
2017-10-06T08:14:36.112Z,100
2017-10-06T08:15:38.891Z,100
2017-10-06T08:16:41.323Z,100
2017-10-06T08:17:43.771Z,100
2017-10-06T08:18:46.192Z,100
2017-10-06T08:19:48.633Z,100
2017-10-06T08:20:51.071Z,100
2017-10-06T08:21:53.886Z,100
2017-10-06T08:22:56.321Z,100
2017-10-06T08:23:58.782Z,100
2017-10-06T08:25:01.196Z,100
2017-10-06T08:26:03.649Z,100
2017-10-06T08:27:06.085Z,100
2017-10-06T08:28:08.526Z,100
2017-10-06T08:29:10.961Z,100
2017-10-06T08:30:13.407Z,99
2017-10-06T08:31:15.847Z,99
2017-10-06T08:32:18.631Z,98
2017-10-06T08:33:21.065Z,98
2017-10-06T08:34:23.509Z,98
2017-10-06T08:35:25.947Z,99
2017-10-06T08:36:28.398Z,98
2017-10-06T08:37:30.820Z,98
2017-10-06T08:38:33.265Z,98
2017-10-06T08:39:35.713Z,98
2017-10-06T08:40:38.488Z,98
2017-10-06T08:41:40.928Z,98
2017-10-06T08:42:43.705Z,98
2017-10-06T08:43:46.143Z,98
2017-10-06T08:44:48.599Z,98
2017-10-06T08:45:51.031Z,97
2017-10-06T08:46:53.462Z,97
2017-10-06T08:47:56.598Z,97
2017-10-06T08:48:59.033Z,97
2017-10-06T08:50:01.470Z,97
2017-10-06T08:51:03.910Z,97
2017-10-06T08:52:06.346Z,97
2017-10-06T08:53:09.133Z,97
2017-10-06T08:54:11.574Z,96
2017-10-06T08:55:14.007Z,95
2017-10-06T08:56:16.452Z,95
2017-10-06T08:57:18.890Z,95
2017-10-06T08:58:21.356Z,95
2017-10-06T08:59:23.793Z,95
2017-10-06T09:00:26.566Z,94
2017-10-06T09:01:29.008Z,93
2017-10-06T09:02:31.452Z,93
2017-10-06T09:03:33.885Z,93
2017-10-06T09:04:36.334Z,93
2017-10-06T09:05:38.782Z,93
2017-10-06T09:06:41.213Z,92
2017-10-06T09:07:43.686Z,91
2017-10-06T09:08:46.123Z,90
2017-10-06T09:09:48.563Z,89
2017-10-06T09:10:51.011Z,90
2017-10-06T09:11:53.454Z,90
2017-10-06T09:12:55.898Z,89
2017-10-06T09:13:58.350Z,89
2017-10-06T09:15:00.789Z,90
2017-10-06T09:16:03.229Z,91
2017-10-06T09:17:05.671Z,89
2017-10-06T09:18:08.132Z,88
2017-10-06T09:19:10.569Z,89
2017-10-06T09:20:13.001Z,89
2017-10-06T09:21:15.444Z,89
2017-10-06T09:22:17.883Z,87
2017-10-06T09:23:20.340Z,87
2017-10-06T09:24:22.794Z,89
2017-10-06T09:25:25.228Z,87
2017-10-06T09:26:27.683Z,86
2017-10-06T09:27:30.143Z,87
2017-10-06T09:28:32.584Z,88
2017-10-06T09:29:35.029Z,86
2017-10-06T09:30:37.471Z,86
2017-10-06T09:31:40.202Z,86
2017-10-06T09:32:42.760Z,86
2017-10-06T09:33:45.226Z,88
2017-10-06T09:34:47.658Z,88
2017-10-06T09:35:50.157Z,88
2017-10-06T09:36:52.595Z,89
2017-10-06T09:37:55.031Z,89
2017-10-06T09:38:57.980Z,87
2017-10-06T09:40:00.407Z,89
2017-10-06T09:41:02.850Z,89
2017-10-06T09:42:05.308Z,90
2017-10-06T09:43:07.750Z,88
2017-10-06T09:44:10.196Z,89
2017-10-06T09:45:12.644Z,87
2017-10-06T09:46:15.084Z,86
2017-10-06T09:47:17.545Z,88
2017-10-06T09:48:19.987Z,88
2017-10-06T09:49:22.439Z,86
2017-10-06T09:50:24.883Z,87
2017-10-06T09:51:27.327Z,87
2017-10-06T09:52:30.189Z,89
2017-10-06T09:53:32.986Z,89
2017-10-06T09:54:35.811Z,87
2017-10-06T09:55:38.256Z,89
2017-10-06T09:56:41.045Z,88
2017-10-06T09:57:43.485Z,90
2017-10-06T09:58:45.941Z,88
2017-10-06T09:59:48.379Z,87
2017-10-06T10:00:50.809Z,87
2017-10-06T10:01:53.261Z,86
2017-10-06T10:02:55.706Z,87
2017-10-06T10:03:58.146Z,85
2017-10-06T10:05:00.587Z,85
2017-10-06T10:06:03.021Z,84
2017-10-06T10:07:05.802Z,84
2017-10-06T10:08:08.257Z,83
2017-10-06T10:09:11.043Z,85
2017-10-06T10:10:13.487Z,85
2017-10-06T10:11:15.932Z,83
2017-10-06T10:12:18.410Z,83
2017-10-06T10:13:20.868Z,82
2017-10-06T10:14:23.310Z,82
2017-10-06T10:15:25.738Z,83
2017-10-06T10:16:28.179Z,82
2017-10-06T10:17:30.625Z,83
2017-10-06T10:18:33.076Z,83
2017-10-06T10:19:35.515Z,83
2017-10-06T10:20:37.957Z,83
2017-10-06T10:21:40.406Z,83
2017-10-06T10:22:42.845Z,82
2017-10-06T10:23:45.296Z,83
2017-10-06T10:24:47.740Z,82
2017-10-06T10:25:50.169Z,85
2017-10-06T10:26:52.618Z,82
2017-10-06T10:27:55.058Z,83
2017-10-06T10:28:57.498Z,81
2017-10-06T10:29:59.947Z,82
2017-10-06T10:31:02.396Z,78
2017-10-06T10:32:04.832Z,76
2017-10-06T10:33:07.276Z,76
2017-10-06T10:34:09.709Z,78
2017-10-06T10:35:12.145Z,79
2017-10-06T10:36:14.591Z,81
2017-10-06T10:37:17.030Z,81
2017-10-06T10:38:19.824Z,81
2017-10-06T10:39:22.265Z,80
2017-10-06T10:40:24.709Z,77
2017-10-06T10:41:27.511Z,78
2017-10-06T10:42:29.955Z,80
2017-10-06T10:43:32.404Z,79
2017-10-06T10:44:34.839Z,78
2017-10-06T10:45:37.279Z,79
2017-10-06T10:46:39.731Z,78
2017-10-06T10:47:42.185Z,80
2017-10-06T10:48:44.621Z,79
2017-10-06T10:49:47.420Z,77
2017-10-06T10:50:49.864Z,78
2017-10-06T10:51:52.310Z,81
2017-10-06T10:52:54.747Z,76
2017-10-06T10:53:57.198Z,76
2017-10-06T10:54:59.645Z,78
2017-10-06T10:56:02.089Z,73
2017-10-06T10:57:04.528Z,74
2017-10-06T10:58:06.973Z,76
2017-10-06T10:59:09.420Z,76
2017-10-06T11:00:11.876Z,77
2017-10-06T11:01:14.322Z,76
2017-10-06T11:02:16.769Z,74
2017-10-06T11:03:19.208Z,77
2017-10-06T11:04:21.658Z,80
2017-10-06T11:05:24.106Z,81
2017-10-06T11:06:26.558Z,82
2017-10-06T11:07:29.000Z,85
2017-10-06T11:08:31.453Z,85
2017-10-06T11:09:33.899Z,85
2017-10-06T11:10:36.344Z,87
2017-10-06T11:11:38.784Z,86
2017-10-06T11:12:41.234Z,86
2017-10-06T11:13:43.667Z,86
2017-10-06T11:14:46.122Z,85
2017-10-06T11:15:48.573Z,84
2017-10-06T11:16:51.012Z,85
2017-10-06T11:17:53.457Z,87
2017-10-06T11:18:55.906Z,86
2017-10-06T11:19:58.343Z,87
2017-10-06T11:21:00.789Z,84
2017-10-06T11:22:03.232Z,85
2017-10-06T11:23:05.668Z,84
2017-10-06T11:24:08.123Z,85
2017-10-06T11:25:10.569Z,81
2017-10-06T11:26:13.011Z,83
2017-10-06T11:27:15.807Z,83
2017-10-06T11:28:18.253Z,83
2017-10-06T11:29:21.039Z,83
2017-10-06T11:30:23.499Z,82
2017-10-06T11:31:26.282Z,81
2017-10-06T11:32:28.726Z,80
2017-10-06T11:33:31.174Z,76
2017-10-06T11:34:33.627Z,80
2017-10-06T11:35:36.082Z,77
2017-10-06T11:36:38.524Z,76
2017-10-06T11:37:41.311Z,76
2017-10-06T11:38:43.762Z,78
2017-10-06T11:39:46.706Z,76
2017-10-06T11:40:49.484Z,77
2017-10-06T11:41:51.926Z,75
2017-10-06T11:42:54.691Z,75
2017-10-06T11:43:57.761Z,75
2017-10-06T11:45:00.216Z,73
2017-10-06T11:46:02.668Z,73
2017-10-06T11:47:05.124Z,70
2017-10-06T11:48:07.562Z,74
2017-10-06T11:49:10.006Z,74
2017-10-06T11:50:12.459Z,73
2017-10-06T11:51:14.907Z,70
2017-10-06T11:52:17.353Z,72
2017-10-06T11:53:19.811Z,73
2017-10-06T11:54:22.259Z,74
2017-10-06T11:55:24.727Z,69
2017-10-06T11:56:27.178Z,72
2017-10-06T11:57:29.616Z,73
2017-10-06T11:58:32.067Z,71
2017-10-06T11:59:34.523Z,72
2017-10-06T12:00:36.974Z,71
2017-10-06T12:01:39.460Z,69
2017-10-06T12:02:42.082Z,70
2017-10-06T12:03:45.901Z,67
2017-10-06T12:04:48.382Z,69
2017-10-06T12:05:50.833Z,69
2017-10-06T12:06:53.283Z,69
2017-10-06T12:07:55.728Z,71
2017-10-06T12:08:58.174Z,69
2017-10-06T12:10:00.634Z,67
2017-10-06T12:11:03.084Z,67
2017-10-06T12:12:06.213Z,68
2017-10-06T12:13:09.029Z,68
2017-10-06T12:14:11.489Z,68
2017-10-06T12:15:13.942Z,64
2017-10-06T12:16:16.388Z,68
2017-10-06T12:17:18.840Z,65
2017-10-06T12:18:21.633Z,65
2017-10-06T12:19:24.078Z,66
2017-10-06T12:20:26.531Z,67
2017-10-06T12:21:28.988Z,67
2017-10-06T12:22:31.436Z,69
2017-10-06T12:23:34.245Z,66
2017-10-06T12:24:36.696Z,66
2017-10-06T12:25:39.150Z,65
2017-10-06T12:26:41.596Z,68
2017-10-06T12:27:44.046Z,70
2017-10-06T12:28:46.487Z,70
2017-10-06T12:29:48.957Z,70
2017-10-06T12:30:51.405Z,72
2017-10-06T12:31:53.856Z,72
2017-10-06T12:32:56.307Z,71
2017-10-06T12:33:58.752Z,73
2017-10-06T12:35:01.199Z,73
2017-10-06T12:36:03.667Z,72
2017-10-06T12:37:06.100Z,74
2017-10-06T12:38:08.551Z,73
2017-10-06T12:39:11.003Z,70
2017-10-06T12:40:13.458Z,71
2017-10-06T12:41:15.912Z,72
2017-10-06T12:42:18.365Z,71
2017-10-06T12:43:20.805Z,72
2017-10-06T12:44:23.959Z,75
2017-10-06T12:45:26.401Z,72
2017-10-06T12:46:29.196Z,72
2017-10-06T12:47:31.647Z,73
2017-10-06T12:48:34.091Z,74
2017-10-06T12:49:36.538Z,73
2017-10-06T12:50:38.981Z,72
2017-10-06T12:51:41.436Z,72
2017-10-06T12:52:43.881Z,73
2017-10-06T12:53:46.324Z,75
2017-10-06T12:54:48.778Z,73
2017-10-06T12:55:51.562Z,73
2017-10-06T12:56:54.015Z,73
2017-10-06T12:57:56.802Z,75
2017-10-06T12:58:59.248Z,72
2017-10-06T13:00:01.695Z,72
2017-10-06T13:01:04.139Z,72
2017-10-06T13:02:06.576Z,71
2017-10-06T13:03:09.022Z,72
2017-10-06T13:04:11.478Z,73
2017-10-06T13:05:13.926Z,73
2017-10-06T13:06:16.370Z,72
2017-10-06T13:07:18.814Z,73
2017-10-06T13:08:21.270Z,69
2017-10-06T13:09:23.712Z,72
2017-10-06T13:10:26.161Z,73
2017-10-06T13:11:28.595Z,71
2017-10-06T13:12:31.737Z,72
2017-10-06T13:13:34.189Z,69
2017-10-06T13:14:36.631Z,70
2017-10-06T13:15:39.078Z,69
2017-10-06T13:16:41.524Z,69
2017-10-06T13:17:44.190Z,70
2017-10-06T13:18:46.970Z,69
2017-10-06T13:19:49.421Z,70
2017-10-06T13:20:51.874Z,70
2017-10-06T13:21:54.344Z,71
2017-10-06T13:22:56.766Z,70
2017-10-06T13:23:59.215Z,68
2017-10-06T13:25:01.649Z,68
2017-10-06T13:26:04.476Z,70
2017-10-06T13:27:06.918Z,69
2017-10-06T13:28:09.361Z,65
2017-10-06T13:29:11.806Z,67
2017-10-06T13:30:14.244Z,69
2017-10-06T13:31:16.690Z,66
2017-10-06T13:32:19.131Z,65
2017-10-06T13:33:21.586Z,65
2017-10-06T13:34:24.033Z,66
2017-10-06T13:35:26.488Z,65
2017-10-06T13:36:28.930Z,67
2017-10-06T13:37:31.390Z,66
2017-10-06T13:38:33.832Z,66
2017-10-06T13:39:36.281Z,67
2017-10-06T13:40:38.729Z,66
2017-10-06T13:41:41.514Z,68
2017-10-06T13:42:43.963Z,67
2017-10-06T13:43:46.406Z,67
2017-10-06T13:44:48.864Z,67
2017-10-06T13:45:51.308Z,69
2017-10-06T13:46:53.749Z,68
2017-10-06T13:47:56.209Z,68
2017-10-06T13:48:59.004Z,65
2017-10-06T13:50:01.446Z,66
2017-10-06T13:51:03.911Z,64
2017-10-06T13:52:06.342Z,62
2017-10-06T13:53:08.794Z,64
2017-10-06T13:54:11.245Z,64
2017-10-06T13:55:13.694Z,66
2017-10-06T13:56:16.141Z,64
2017-10-06T13:57:18.591Z,65
2017-10-06T13:58:21.037Z,66
2017-10-06T13:59:23.489Z,64
2017-10-06T14:00:25.938Z,63
2017-10-06T14:01:28.374Z,65
2017-10-06T14:02:30.832Z,65
2017-10-06T14:03:33.281Z,66
2017-10-06T14:04:35.732Z,63
2017-10-06T14:05:38.180Z,63
2017-10-06T14:06:40.625Z,63
2017-10-06T14:07:43.067Z,62
2017-10-06T14:08:45.525Z,63
2017-10-06T14:09:47.965Z,64
2017-10-06T14:10:50.418Z,65
2017-10-06T14:11:52.865Z,67
2017-10-06T14:12:55.320Z,64
2017-10-06T14:13:57.774Z,64
2017-10-06T14:15:00.226Z,67
2017-10-06T14:16:02.692Z,68
2017-10-06T14:17:05.146Z,66
2017-10-06T14:18:07.584Z,65
2017-10-06T14:19:10.033Z,65
2017-10-06T14:20:12.487Z,65
2017-10-06T14:21:14.942Z,66
2017-10-06T14:22:17.394Z,67
2017-10-06T14:23:19.837Z,64
2017-10-06T14:24:22.638Z,66
2017-10-06T14:25:25.441Z,66
2017-10-06T14:26:27.904Z,67
2017-10-06T14:27:30.354Z,67
2017-10-06T14:28:32.812Z,63
2017-10-06T14:29:35.255Z,64
2017-10-06T14:30:37.702Z,65
2017-10-06T14:31:40.159Z,69
2017-10-06T14:32:42.949Z,67
2017-10-06T14:33:45.408Z,65